sensor_id;sensor_type;location;lat;lon;timestamp;P1;durP1;ratioP1;P2;durP2;ratioP2
75426;SDS011;64007;50.632;13.700;2023-06-01T00:02:02;7.07;;;2.00;;
75426;SDS011;64007;50.632;13.700;2023-06-01T00:04:28;6.78;;;1.85;;
75426;SDS011;64007;50.632;13.700;2023-06-01T00:06:54;15.82;;;1.83;;
75426;SDS011;64007;50.632;13.700;2023-06-01T00:09:21;8.70;;;2.00;;
75426;SDS011;64007;50.632;13.700;2023-06-01T00:11:47;13.68;;;2.08;;
75426;SDS011;64007;50.632;13.700;2023-06-01T00:14:13;13.55;;;2.00;;
75426;SDS011;64007;50.632;13.700;2023-06-01T00:16:39;13.73;;;2.00;;
75426;SDS011;64007;50.632;13.700;2023-06-01T00:19:04;8.35;;;2.05;;
75426;SDS011;64007;50.632;13.700;2023-06-01T00:21:30;11.63;;;1.90;;
75426;SDS011;64007;50.632;13.700;2023-06-01T00:23:58;4.93;;;1.73;;
75426;SDS011;64007;50.632;13.700;2023-06-01T00:26:24;6.57;;;1.95;;
75426;SDS011;64007;50.632;13.700;2023-06-01T00:28:50;8.90;;;2.08;;
75426;SDS011;64007;50.632;13.700;2023-06-01T00:31:16;10.02;;;1.88;;
75426;SDS011;64007;50.632;13.700;2023-06-01T00:33:42;12.23;;;1.98;;
75426;SDS011;64007;50.632;13.700;2023-06-01T00:36:08;4.40;;;2.05;;
75426;SDS011;64007;50.632;13.700;2023-06-01T00:38:34;11.85;;;2.38;;
75426;SDS011;64007;50.632;13.700;2023-06-01T00:41:00;6.25;;;1.65;;
75426;SDS011;64007;50.632;13.700;2023-06-01T00:43:26;6.65;;;2.15;;
75426;SDS011;64007;50.632;13.700;2023-06-01T00:45:52;13.55;;;2.05;;
75426;SDS011;64007;50.632;13.700;2023-06-01T00:48:18;14.77;;;2.30;;
75426;SDS011;64007;50.632;13.700;2023-06-01T00:50:46;7.25;;;1.80;;
75426;SDS011;64007;50.632;13.700;2023-06-01T00:53:20;10.95;;;2.30;;
75426;SDS011;64007;50.632;13.700;2023-06-01T00:55:46;5.88;;;1.85;;
75426;SDS011;64007;50.632;13.700;2023-06-01T00:58:13;5.57;;;2.10;;
75426;SDS011;64007;50.632;13.700;2023-06-01T01:00:39;7.20;;;2.17;;
75426;SDS011;64007;50.632;13.700;2023-06-01T01:03:08;6.25;;;1.58;;
75426;SDS011;64007;50.632;13.700;2023-06-01T01:05:37;8.90;;;1.75;;
75426;SDS011;64007;50.632;13.700;2023-06-01T01:13:31;3.28;;;1.58;;
75426;SDS011;64007;50.632;13.700;2023-06-01T01:16:10;15.70;;;1.73;;
75426;SDS011;64007;50.632;13.700;2023-06-01T01:18:43;5.63;;;1.77;;
75426;SDS011;64007;50.632;13.700;2023-06-01T01:21:19;3.83;;;1.90;;
75426;SDS011;64007;50.632;13.700;2023-06-01T01:30:02;2.38;;;1.50;;
75426;SDS011;64007;50.632;13.700;2023-06-01T01:32:31;7.85;;;2.20;;
75426;SDS011;64007;50.632;13.700;2023-06-01T01:34:58;5.70;;;1.67;;
75426;SDS011;64007;50.632;13.700;2023-06-01T01:37:25;2.92;;;1.63;;
75426;SDS011;64007;50.632;13.700;2023-06-01T01:39:51;2.72;;;1.67;;
75426;SDS011;64007;50.632;13.700;2023-06-01T01:42:17;6.15;;;1.90;;
75426;SDS011;64007;50.632;13.700;2023-06-01T01:44:42;6.25;;;1.80;;
75426;SDS011;64007;50.632;13.700;2023-06-01T01:47:19;2.60;;;1.45;;
75426;SDS011;64007;50.632;13.700;2023-06-01T01:50:09;4.18;;;1.73;;
75426;SDS011;64007;50.632;13.700;2023-06-01T01:52:38;7.85;;;1.42;;
75426;SDS011;64007;50.632;13.700;2023-06-01T01:55:05;5.80;;;1.70;;
75426;SDS011;64007;50.632;13.700;2023-06-01T01:57:35;6.88;;;1.60;;
75426;SDS011;64007;50.632;13.700;2023-06-01T02:00:02;6.97;;;1.92;;
75426;SDS011;64007;50.632;13.700;2023-06-01T02:02:31;6.03;;;1.83;;
75426;SDS011;64007;50.632;13.700;2023-06-01T02:04:57;8.35;;;1.85;;
75426;SDS011;64007;50.632;13.700;2023-06-01T02:07:22;4.97;;;1.80;;
75426;SDS011;64007;50.632;13.700;2023-06-01T02:09:48;8.00;;;1.67;;
75426;SDS011;64007;50.632;13.700;2023-06-01T02:12:14;7.47;;;1.73;;
75426;SDS011;64007;50.632;13.700;2023-06-01T02:14:40;6.88;;;2.08;;
75426;SDS011;64007;50.632;13.700;2023-06-01T02:17:06;6.90;;;1.92;;
75426;SDS011;64007;50.632;13.700;2023-06-01T02:19:32;4.70;;;1.85;;
75426;SDS011;64007;50.632;13.700;2023-06-01T02:21:59;9.70;;;1.80;;
75426;SDS011;64007;50.632;13.700;2023-06-01T02:24:24;4.55;;;1.80;;
75426;SDS011;64007;50.632;13.700;2023-06-01T02:26:50;7.60;;;2.00;;
75426;SDS011;64007;50.632;13.700;2023-06-01T02:29:19;8.32;;;2.00;;
75426;SDS011;64007;50.632;13.700;2023-06-01T02:31:49;5.68;;;1.50;;
75426;SDS011;64007;50.632;13.700;2023-06-01T02:34:16;12.18;;;2.10;;
75426;SDS011;64007;50.632;13.700;2023-06-01T02:36:42;3.88;;;1.65;;
75426;SDS011;64007;50.632;13.700;2023-06-01T02:39:08;4.35;;;2.00;;
75426;SDS011;64007;50.632;13.700;2023-06-01T02:41:34;6.00;;;1.75;;
75426;SDS011;64007;50.632;13.700;2023-06-01T02:44:00;4.15;;;1.60;;
75426;SDS011;64007;50.632;13.700;2023-06-01T02:46:26;3.55;;;1.55;;
75426;SDS011;64007;50.632;13.700;2023-06-01T02:48:52;4.80;;;1.55;;
75426;SDS011;64007;50.632;13.700;2023-06-01T02:51:18;4.30;;;1.65;;
75426;SDS011;64007;50.632;13.700;2023-06-01T02:53:44;1.85;;;1.35;;
75426;SDS011;64007;50.632;13.700;2023-06-01T02:56:12;3.17;;;1.48;;
75426;SDS011;64007;50.632;13.700;2023-06-01T02:58:38;2.22;;;1.33;;
75426;SDS011;64007;50.632;13.700;2023-06-01T03:01:04;3.70;;;1.67;;
75426;SDS011;64007;50.632;13.700;2023-06-01T03:03:30;5.10;;;1.67;;
75426;SDS011;64007;50.632;13.700;2023-06-01T03:05:56;10.25;;;1.70;;
75426;SDS011;64007;50.632;13.700;2023-06-01T03:08:22;2.30;;;1.58;;
75426;SDS011;64007;50.632;13.700;2023-06-01T03:10:50;2.80;;;1.40;;
75426;SDS011;64007;50.632;13.700;2023-06-01T03:13:15;5.18;;;1.55;;
75426;SDS011;64007;50.632;13.700;2023-06-01T03:15:41;3.63;;;1.40;;
75426;SDS011;64007;50.632;13.700;2023-06-01T03:18:07;5.82;;;1.50;;
75426;SDS011;64007;50.632;13.700;2023-06-01T03:20:34;3.97;;;1.60;;
75426;SDS011;64007;50.632;13.700;2023-06-01T03:23:00;2.67;;;1.42;;
75426;SDS011;64007;50.632;13.700;2023-06-01T03:25:26;4.85;;;1.60;;
75426;SDS011;64007;50.632;13.700;2023-06-01T03:27:51;3.60;;;1.52;;
75426;SDS011;64007;50.632;13.700;2023-06-01T03:30:17;2.13;;;1.20;;
75426;SDS011;64007;50.632;13.700;2023-06-01T03:32:44;3.95;;;1.42;;
75426;SDS011;64007;50.632;13.700;2023-06-01T03:35:13;6.15;;;1.45;;
75426;SDS011;64007;50.632;13.700;2023-06-01T03:37:40;5.55;;;1.52;;
75426;SDS011;64007;50.632;13.700;2023-06-01T03:40:07;4.63;;;1.58;;
75426;SDS011;64007;50.632;13.700;2023-06-01T03:42:40;3.45;;;1.25;;
75426;SDS011;64007;50.632;13.700;2023-06-01T03:45:06;3.35;;;1.40;;
75426;SDS011;64007;50.632;13.700;2023-06-01T03:47:33;2.55;;;1.35;;
75426;SDS011;64007;50.632;13.700;2023-06-01T03:49:59;6.20;;;1.38;;
75426;SDS011;64007;50.632;13.700;2023-06-01T03:52:26;3.90;;;1.42;;
75426;SDS011;64007;50.632;13.700;2023-06-01T03:54:57;2.70;;;1.38;;
75426;SDS011;64007;50.632;13.700;2023-06-01T03:57:24;4.20;;;1.40;;
75426;SDS011;64007;50.632;13.700;2023-06-01T03:59:50;6.18;;;1.40;;
75426;SDS011;64007;50.632;13.700;2023-06-01T04:02:16;2.58;;;1.27;;
75426;SDS011;64007;50.632;13.700;2023-06-01T04:04:44;3.10;;;1.20;;
75426;SDS011;64007;50.632;13.700;2023-06-01T04:07:13;7.25;;;1.30;;
75426;SDS011;64007;50.632;13.700;2023-06-01T04:09:40;2.92;;;1.42;;
75426;SDS011;64007;50.632;13.700;2023-06-01T04:12:06;2.38;;;1.15;;
75426;SDS011;64007;50.632;13.700;2023-06-01T04:14:32;5.57;;;1.70;;
75426;SDS011;64007;50.632;13.700;2023-06-01T04:16:59;5.07;;;1.30;;
75426;SDS011;64007;50.632;13.700;2023-06-01T04:19:26;4.22;;;1.42;;
75426;SDS011;64007;50.632;13.700;2023-06-01T04:21:51;1.85;;;1.30;;
75426;SDS011;64007;50.632;13.700;2023-06-01T04:24:18;4.82;;;1.50;;
75426;SDS011;64007;50.632;13.700;2023-06-01T04:26:44;3.20;;;1.45;;
75426;SDS011;64007;50.632;13.700;2023-06-01T04:29:10;2.45;;;1.30;;
75426;SDS011;64007;50.632;13.700;2023-06-01T04:31:40;7.72;;;1.45;;
75426;SDS011;64007;50.632;13.700;2023-06-01T04:34:06;2.63;;;1.33;;
75426;SDS011;64007;50.632;13.700;2023-06-01T04:36:35;3.75;;;1.70;;
75426;SDS011;64007;50.632;13.700;2023-06-01T04:39:08;5.18;;;1.60;;
75426;SDS011;64007;50.632;13.700;2023-06-01T04:41:34;3.72;;;2.28;;
75426;SDS011;64007;50.632;13.700;2023-06-01T04:44:01;6.75;;;2.60;;
75426;SDS011;64007;50.632;13.700;2023-06-01T04:46:31;9.70;;;2.75;;
75426;SDS011;64007;50.632;13.700;2023-06-01T04:48:57;5.75;;;2.58;;
75426;SDS011;64007;50.632;13.700;2023-06-01T04:51:25;6.55;;;2.75;;
75426;SDS011;64007;50.632;13.700;2023-06-01T04:53:52;4.75;;;2.60;;
75426;SDS011;64007;50.632;13.700;2023-06-01T04:56:19;6.70;;;2.70;;
75426;SDS011;64007;50.632;13.700;2023-06-01T04:58:50;7.15;;;2.92;;
75426;SDS011;64007;50.632;13.700;2023-06-01T05:01:17;11.25;;;3.03;;
75426;SDS011;64007;50.632;13.700;2023-06-01T05:03:43;5.28;;;2.42;;
75426;SDS011;64007;50.632;13.700;2023-06-01T05:06:13;12.95;;;2.88;;
75426;SDS011;64007;50.632;13.700;2023-06-01T05:08:39;4.35;;;2.70;;
75426;SDS011;64007;50.632;13.700;2023-06-01T05:11:06;6.57;;;2.63;;
75426;SDS011;64007;50.632;13.700;2023-06-01T05:13:36;6.10;;;2.92;;
75426;SDS011;64007;50.632;13.700;2023-06-01T05:16:03;7.10;;;2.67;;
75426;SDS011;64007;50.632;13.700;2023-06-01T05:18:29;6.22;;;2.75;;
75426;SDS011;64007;50.632;13.700;2023-06-01T05:20:55;12.98;;;2.88;;
75426;SDS011;64007;50.632;13.700;2023-06-01T05:23:21;12.35;;;3.17;;
75426;SDS011;64007;50.632;13.700;2023-06-01T05:25:47;7.28;;;2.67;;
75426;SDS011;64007;50.632;13.700;2023-06-01T05:28:13;8.80;;;2.90;;
75426;SDS011;64007;50.632;13.700;2023-06-01T05:30:40;9.95;;;3.35;;
75426;SDS011;64007;50.632;13.700;2023-06-01T05:33:05;6.93;;;2.95;;
75426;SDS011;64007;50.632;13.700;2023-06-01T05:35:31;6.70;;;2.63;;
75426;SDS011;64007;50.632;13.700;2023-06-01T05:37:57;7.85;;;3.50;;
75426;SDS011;64007;50.632;13.700;2023-06-01T05:40:23;5.50;;;3.10;;
75426;SDS011;64007;50.632;13.700;2023-06-01T05:42:48;9.85;;;3.10;;
75426;SDS011;64007;50.632;13.700;2023-06-01T05:45:14;6.88;;;3.42;;
75426;SDS011;64007;50.632;13.700;2023-06-01T05:47:40;6.45;;;3.72;;
75426;SDS011;64007;50.632;13.700;2023-06-01T05:50:05;8.43;;;3.50;;
75426;SDS011;64007;50.632;13.700;2023-06-01T05:52:31;6.00;;;3.28;;
75426;SDS011;64007;50.632;13.700;2023-06-01T05:54:57;5.95;;;3.05;;
75426;SDS011;64007;50.632;13.700;2023-06-01T05:57:23;8.80;;;2.95;;
75426;SDS011;64007;50.632;13.700;2023-06-01T05:59:49;6.25;;;2.78;;
75426;SDS011;64007;50.632;13.700;2023-06-01T06:02:15;6.50;;;3.10;;
75426;SDS011;64007;50.632;13.700;2023-06-01T06:04:41;11.13;;;3.08;;
75426;SDS011;64007;50.632;13.700;2023-06-01T06:07:06;8.55;;;2.85;;
75426;SDS011;64007;50.632;13.700;2023-06-01T06:09:33;5.80;;;2.70;;
75426;SDS011;64007;50.632;13.700;2023-06-01T06:11:58;7.43;;;3.08;;
75426;SDS011;64007;50.632;13.700;2023-06-01T06:14:25;7.80;;;2.80;;
75426;SDS011;64007;50.632;13.700;2023-06-01T06:16:50;6.07;;;2.80;;
75426;SDS011;64007;50.632;13.700;2023-06-01T06:19:16;5.03;;;2.78;;
75426;SDS011;64007;50.632;13.700;2023-06-01T06:21:42;5.30;;;2.50;;
75426;SDS011;64007;50.632;13.700;2023-06-01T06:24:08;9.02;;;2.50;;
75426;SDS011;64007;50.632;13.700;2023-06-01T06:26:35;7.13;;;2.90;;
75426;SDS011;64007;50.632;13.700;2023-06-01T06:29:01;7.82;;;2.60;;
75426;SDS011;64007;50.632;13.700;2023-06-01T06:31:26;8.40;;;2.85;;
75426;SDS011;64007;50.632;13.700;2023-06-01T06:33:52;7.00;;;2.67;;
75426;SDS011;64007;50.632;13.700;2023-06-01T06:36:18;7.03;;;2.30;;
75426;SDS011;64007;50.632;13.700;2023-06-01T06:38:44;5.43;;;2.47;;
75426;SDS011;64007;50.632;13.700;2023-06-01T06:41:10;4.07;;;2.20;;
75426;SDS011;64007;50.632;13.700;2023-06-01T06:43:36;12.02;;;2.50;;
75426;SDS011;64007;50.632;13.700;2023-06-01T06:46:02;5.72;;;2.92;;
75426;SDS011;64007;50.632;13.700;2023-06-01T06:48:29;6.32;;;2.17;;
75426;SDS011;64007;50.632;13.700;2023-06-01T06:50:54;6.47;;;2.10;;
75426;SDS011;64007;50.632;13.700;2023-06-01T06:53:21;5.40;;;2.10;;
75426;SDS011;64007;50.632;13.700;2023-06-01T06:55:47;3.33;;;1.85;;
75426;SDS011;64007;50.632;13.700;2023-06-01T06:58:13;6.07;;;2.33;;
75426;SDS011;64007;50.632;13.700;2023-06-01T07:00:39;10.52;;;2.72;;
75426;SDS011;64007;50.632;13.700;2023-06-01T07:03:06;5.47;;;2.33;;
75426;SDS011;64007;50.632;13.700;2023-06-01T07:05:32;5.40;;;2.30;;
75426;SDS011;64007;50.632;13.700;2023-06-01T07:07:58;3.78;;;1.90;;
75426;SDS011;64007;50.632;13.700;2023-06-01T07:10:24;3.70;;;1.98;;
75426;SDS011;64007;50.632;13.700;2023-06-01T07:12:51;6.13;;;3.00;;
75426;SDS011;64007;50.632;13.700;2023-06-01T07:15:17;10.15;;;2.70;;
75426;SDS011;64007;50.632;13.700;2023-06-01T07:17:43;6.53;;;2.10;;
75426;SDS011;64007;50.632;13.700;2023-06-01T07:20:08;7.05;;;2.40;;
75426;SDS011;64007;50.632;13.700;2023-06-01T07:22:38;5.63;;;2.30;;
75426;SDS011;64007;50.632;13.700;2023-06-01T07:25:04;7.70;;;2.17;;
75426;SDS011;64007;50.632;13.700;2023-06-01T07:27:31;8.73;;;3.03;;
75426;SDS011;64007;50.632;13.700;2023-06-01T07:30:01;7.15;;;2.30;;
75426;SDS011;64007;50.632;13.700;2023-06-01T07:32:30;4.95;;;2.17;;
75426;SDS011;64007;50.632;13.700;2023-06-01T07:34:56;5.65;;;2.10;;
75426;SDS011;64007;50.632;13.700;2023-06-01T07:37:24;6.25;;;2.20;;
75426;SDS011;64007;50.632;13.700;2023-06-01T07:39:52;3.70;;;2.25;;
75426;SDS011;64007;50.632;13.700;2023-06-01T07:42:19;9.20;;;2.55;;
75426;SDS011;64007;50.632;13.700;2023-06-01T07:44:45;7.72;;;2.13;;
75426;SDS011;64007;50.632;13.700;2023-06-01T07:47:11;3.75;;;2.10;;
75426;SDS011;64007;50.632;13.700;2023-06-01T07:49:37;3.40;;;1.90;;
75426;SDS011;64007;50.632;13.700;2023-06-01T07:52:04;7.90;;;2.33;;
75426;SDS011;64007;50.632;13.700;2023-06-01T07:54:30;5.07;;;2.30;;
75426;SDS011;64007;50.632;13.700;2023-06-01T07:56:56;16.13;;;2.30;;
75426;SDS011;64007;50.632;13.700;2023-06-01T07:59:23;10.32;;;2.83;;
75426;SDS011;64007;50.632;13.700;2023-06-01T08:01:53;6.30;;;2.00;;
75426;SDS011;64007;50.632;13.700;2023-06-01T08:04:20;6.32;;;2.60;;
75426;SDS011;64007;50.632;13.700;2023-06-01T08:06:46;6.57;;;2.38;;
75426;SDS011;64007;50.632;13.700;2023-06-01T08:09:12;3.67;;;1.75;;
75426;SDS011;64007;50.632;13.700;2023-06-01T08:11:38;8.52;;;2.38;;
75426;SDS011;64007;50.632;13.700;2023-06-01T08:14:04;6.35;;;2.15;;
75426;SDS011;64007;50.632;13.700;2023-06-01T08:16:32;3.63;;;2.10;;
75426;SDS011;64007;50.632;13.700;2023-06-01T08:18:58;10.13;;;2.45;;
75426;SDS011;64007;50.632;13.700;2023-06-01T08:21:25;8.98;;;1.90;;
75426;SDS011;64007;50.632;13.700;2023-06-01T08:23:52;6.35;;;2.38;;
75426;SDS011;64007;50.632;13.700;2023-06-01T08:26:20;6.15;;;2.53;;
75426;SDS011;64007;50.632;13.700;2023-06-01T08:28:47;4.40;;;1.95;;
75426;SDS011;64007;50.632;13.700;2023-06-01T08:31:19;3.95;;;1.90;;
75426;SDS011;64007;50.632;13.700;2023-06-01T08:33:46;11.32;;;2.83;;
75426;SDS011;64007;50.632;13.700;2023-06-01T08:36:12;8.27;;;2.30;;
75426;SDS011;64007;50.632;13.700;2023-06-01T08:38:38;11.70;;;2.28;;
75426;SDS011;64007;50.632;13.700;2023-06-01T08:41:11;4.53;;;2.08;;
75426;SDS011;64007;50.632;13.700;2023-06-01T08:43:36;12.50;;;2.28;;
75426;SDS011;64007;50.632;13.700;2023-06-01T08:46:06;11.70;;;2.40;;
75426;SDS011;64007;50.632;13.700;2023-06-01T08:48:32;16.02;;;2.50;;
75426;SDS011;64007;50.632;13.700;2023-06-01T08:50:59;13.85;;;2.00;;
75426;SDS011;64007;50.632;13.700;2023-06-01T08:53:25;6.15;;;1.73;;
75426;SDS011;64007;50.632;13.700;2023-06-01T08:55:56;7.07;;;1.55;;
75426;SDS011;64007;50.632;13.700;2023-06-01T08:58:22;5.60;;;1.50;;
75426;SDS011;64007;50.632;13.700;2023-06-01T09:00:50;4.13;;;1.70;;
75426;SDS011;64007;50.632;13.700;2023-06-01T09:03:19;2.03;;;1.40;;
75426;SDS011;64007;50.632;13.700;2023-06-01T09:05:45;3.67;;;1.40;;
75426;SDS011;64007;50.632;13.700;2023-06-01T09:08:11;3.10;;;1.25;;
75426;SDS011;64007;50.632;13.700;2023-06-01T09:10:37;2.28;;;1.40;;
75426;SDS011;64007;50.632;13.700;2023-06-01T09:13:03;3.80;;;1.58;;
75426;SDS011;64007;50.632;13.700;2023-06-01T09:15:29;3.83;;;1.70;;
75426;SDS011;64007;50.632;13.700;2023-06-01T09:18:08;5.15;;;1.60;;
75426;SDS011;64007;50.632;13.700;2023-06-01T09:20:35;5.28;;;1.50;;
75426;SDS011;64007;50.632;13.700;2023-06-01T09:23:02;5.65;;;1.45;;
75426;SDS011;64007;50.632;13.700;2023-06-01T09:25:29;3.05;;;1.40;;
75426;SDS011;64007;50.632;13.700;2023-06-01T09:28:00;9.40;;;1.70;;
75426;SDS011;64007;50.632;13.700;2023-06-01T09:30:48;4.90;;;1.55;;
75426;SDS011;64007;50.632;13.700;2023-06-01T09:33:14;3.13;;;1.30;;
75426;SDS011;64007;50.632;13.700;2023-06-01T09:38:09;2.58;;;1.23;;
75426;SDS011;64007;50.632;13.700;2023-06-01T09:40:37;2.75;;;1.27;;
75426;SDS011;64007;50.632;13.700;2023-06-01T09:43:17;3.90;;;1.60;;
75426;SDS011;64007;50.632;13.700;2023-06-01T09:45:44;3.03;;;1.20;;
75426;SDS011;64007;50.632;13.700;2023-06-01T09:48:16;8.05;;;1.67;;
75426;SDS011;64007;50.632;13.700;2023-06-01T09:50:43;5.43;;;1.38;;
75426;SDS011;64007;50.632;13.700;2023-06-01T09:53:10;2.45;;;1.25;;
75426;SDS011;64007;50.632;13.700;2023-06-01T09:55:36;6.18;;;1.25;;
75426;SDS011;64007;50.632;13.700;2023-06-01T09:58:20;3.83;;;1.50;;
75426;SDS011;64007;50.632;13.700;2023-06-01T10:00:48;4.80;;;1.50;;
75426;SDS011;64007;50.632;13.700;2023-06-01T10:03:14;3.42;;;1.40;;
75426;SDS011;64007;50.632;13.700;2023-06-01T10:05:42;5.13;;;1.67;;
75426;SDS011;64007;50.632;13.700;2023-06-01T10:08:10;5.00;;;1.73;;
75426;SDS011;64007;50.632;13.700;2023-06-01T10:10:38;6.25;;;1.63;;
75426;SDS011;64007;50.632;13.700;2023-06-01T10:13:04;3.95;;;1.40;;
75426;SDS011;64007;50.632;13.700;2023-06-01T10:15:32;4.28;;;1.38;;
75426;SDS011;64007;50.632;13.700;2023-06-01T10:17:58;4.57;;;1.83;;
75426;SDS011;64007;50.632;13.700;2023-06-01T10:20:28;3.03;;;1.67;;
75426;SDS011;64007;50.632;13.700;2023-06-01T10:22:56;4.90;;;1.50;;
75426;SDS011;64007;50.632;13.700;2023-06-01T10:25:22;1.90;;;1.20;;
75426;SDS011;64007;50.632;13.700;2023-06-01T10:27:57;4.90;;;1.50;;
75426;SDS011;64007;50.632;13.700;2023-06-01T10:30:26;5.72;;;1.30;;
75426;SDS011;64007;50.632;13.700;2023-06-01T10:32:51;2.45;;;1.30;;
75426;SDS011;64007;50.632;13.700;2023-06-01T10:40:33;3.53;;;1.23;;
75426;SDS011;64007;50.632;13.700;2023-06-01T10:42:59;1.92;;;1.33;;
75426;SDS011;64007;50.632;13.700;2023-06-01T10:48:00;3.75;;;1.30;;
75426;SDS011;64007;50.632;13.700;2023-06-01T10:50:27;4.07;;;1.38;;
75426;SDS011;64007;50.632;13.700;2023-06-01T10:52:53;3.42;;;1.58;;
75426;SDS011;64007;50.632;13.700;2023-06-01T10:55:21;2.92;;;1.52;;
75426;SDS011;64007;50.632;13.700;2023-06-01T10:57:48;5.40;;;1.42;;
75426;SDS011;64007;50.632;13.700;2023-06-01T11:00:18;2.80;;;1.50;;
75426;SDS011;64007;50.632;13.700;2023-06-01T11:03:00;3.70;;;1.65;;
75426;SDS011;64007;50.632;13.700;2023-06-01T11:05:47;4.70;;;1.67;;
75426;SDS011;64007;50.632;13.700;2023-06-01T11:13:16;1.80;;;1.30;;
75426;SDS011;64007;50.632;13.700;2023-06-01T11:18:49;5.72;;;1.70;;
75426;SDS011;64007;50.632;13.700;2023-06-01T11:23:59;6.55;;;1.60;;
75426;SDS011;64007;50.632;13.700;2023-06-01T11:26:29;7.45;;;1.60;;
75426;SDS011;64007;50.632;13.700;2023-06-01T11:29:06;5.03;;;1.58;;
75426;SDS011;64007;50.632;13.700;2023-06-01T11:31:36;3.25;;;1.65;;
75426;SDS011;64007;50.632;13.700;2023-06-01T11:34:03;8.15;;;1.73;;
75426;SDS011;64007;50.632;13.700;2023-06-01T11:36:29;2.28;;;1.58;;
75426;SDS011;64007;50.632;13.700;2023-06-01T11:39:02;3.65;;;1.80;;
75426;SDS011;64007;50.632;13.700;2023-06-01T11:41:32;5.03;;;1.77;;
75426;SDS011;64007;50.632;13.700;2023-06-01T11:43:58;6.20;;;1.70;;
75426;SDS011;64007;50.632;13.700;2023-06-01T11:46:24;4.80;;;1.70;;
75426;SDS011;64007;50.632;13.700;2023-06-01T11:48:58;4.63;;;1.85;;
75426;SDS011;64007;50.632;13.700;2023-06-01T11:51:28;4.15;;;1.63;;
75426;SDS011;64007;50.632;13.700;2023-06-01T11:53:56;6.95;;;1.80;;
75426;SDS011;64007;50.632;13.700;2023-06-01T11:56:32;4.15;;;1.70;;
75426;SDS011;64007;50.632;13.700;2023-06-01T11:59:02;4.63;;;1.70;;
75426;SDS011;64007;50.632;13.700;2023-06-01T12:01:35;3.65;;;1.70;;
75426;SDS011;64007;50.632;13.700;2023-06-01T12:04:11;2.97;;;1.73;;
75426;SDS011;64007;50.632;13.700;2023-06-01T12:06:44;4.45;;;1.73;;
75426;SDS011;64007;50.632;13.700;2023-06-01T12:09:10;3.33;;;1.60;;
75426;SDS011;64007;50.632;13.700;2023-06-01T12:11:37;3.30;;;1.92;;
75426;SDS011;64007;50.632;13.700;2023-06-01T12:14:04;5.90;;;2.00;;
75426;SDS011;64007;50.632;13.700;2023-06-01T12:19:19;3.30;;;1.58;;
75426;SDS011;64007;50.632;13.700;2023-06-01T12:21:47;3.22;;;1.63;;
75426;SDS011;64007;50.632;13.700;2023-06-01T12:24:16;4.75;;;1.80;;
75426;SDS011;64007;50.632;13.700;2023-06-01T12:26:43;8.50;;;1.83;;
75426;SDS011;64007;50.632;13.700;2023-06-01T12:29:09;7.13;;;2.00;;
75426;SDS011;64007;50.632;13.700;2023-06-01T12:31:35;3.80;;;1.73;;
75426;SDS011;64007;50.632;13.700;2023-06-01T12:34:01;9.20;;;1.75;;
75426;SDS011;64007;50.632;13.700;2023-06-01T12:36:27;2.47;;;1.50;;
75426;SDS011;64007;50.632;13.700;2023-06-01T12:38:56;12.88;;;2.10;;
75426;SDS011;64007;50.632;13.700;2023-06-01T12:41:24;5.47;;;1.60;;
75426;SDS011;64007;50.632;13.700;2023-06-01T12:43:50;9.50;;;2.10;;
75426;SDS011;64007;50.632;13.700;2023-06-01T12:46:21;6.30;;;1.95;;
75426;SDS011;64007;50.632;13.700;2023-06-01T12:49:10;2.58;;;1.95;;
75426;SDS011;64007;50.632;13.700;2023-06-01T12:51:37;4.47;;;1.77;;
75426;SDS011;64007;50.632;13.700;2023-06-01T12:54:03;9.00;;;1.80;;
75426;SDS011;64007;50.632;13.700;2023-06-01T12:56:29;5.90;;;1.92;;
75426;SDS011;64007;50.632;13.700;2023-06-01T12:58:55;6.50;;;1.67;;
75426;SDS011;64007;50.632;13.700;2023-06-01T13:01:21;3.53;;;2.00;;
75426;SDS011;64007;50.632;13.700;2023-06-01T13:03:46;3.53;;;1.70;;
75426;SDS011;64007;50.632;13.700;2023-06-01T13:06:14;2.28;;;1.63;;
75426;SDS011;64007;50.632;13.700;2023-06-01T13:08:42;3.55;;;1.90;;
75426;SDS011;64007;50.632;13.700;2023-06-01T13:11:08;3.40;;;2.17;;
75426;SDS011;64007;50.632;13.700;2023-06-01T13:13:34;5.30;;;1.80;;
75426;SDS011;64007;50.632;13.700;2023-06-01T13:16:00;4.30;;;2.08;;
75426;SDS011;64007;50.632;13.700;2023-06-01T13:18:27;10.35;;;2.13;;
75426;SDS011;64007;50.632;13.700;2023-06-01T13:20:54;3.42;;;2.10;;
75426;SDS011;64007;50.632;13.700;2023-06-01T13:23:21;5.25;;;2.00;;
75426;SDS011;64007;50.632;13.700;2023-06-01T13:25:47;3.60;;;1.70;;
75426;SDS011;64007;50.632;13.700;2023-06-01T13:28:13;5.53;;;1.85;;
75426;SDS011;64007;50.632;13.700;2023-06-01T13:30:42;3.60;;;1.90;;
75426;SDS011;64007;50.632;13.700;2023-06-01T13:33:07;3.83;;;2.00;;
75426;SDS011;64007;50.632;13.700;2023-06-01T13:35:34;2.92;;;1.70;;
75426;SDS011;64007;50.632;13.700;2023-06-01T13:37:59;4.30;;;1.70;;
75426;SDS011;64007;50.632;13.700;2023-06-01T13:40:25;8.02;;;1.90;;
75426;SDS011;64007;50.632;13.700;2023-06-01T13:42:52;5.63;;;2.00;;
75426;SDS011;64007;50.632;13.700;2023-06-01T13:45:18;4.53;;;1.80;;
75426;SDS011;64007;50.632;13.700;2023-06-01T13:47:45;4.50;;;1.70;;
75426;SDS011;64007;50.632;13.700;2023-06-01T13:50:12;3.97;;;1.75;;
75426;SDS011;64007;50.632;13.700;2023-06-01T13:52:39;6.68;;;1.95;;
75426;SDS011;64007;50.632;13.700;2023-06-01T13:55:06;3.25;;;1.85;;
75426;SDS011;64007;50.632;13.700;2023-06-01T13:57:33;5.25;;;1.75;;
75426;SDS011;64007;50.632;13.700;2023-06-01T13:59:59;8.40;;;1.67;;
75426;SDS011;64007;50.632;13.700;2023-06-01T14:02:24;4.72;;;1.80;;
75426;SDS011;64007;50.632;13.700;2023-06-01T14:04:50;3.42;;;1.73;;
75426;SDS011;64007;50.632;13.700;2023-06-01T14:07:17;6.82;;;1.98;;
75426;SDS011;64007;50.632;13.700;2023-06-01T14:09:43;4.03;;;1.83;;
75426;SDS011;64007;50.632;13.700;2023-06-01T14:12:09;4.28;;;1.90;;
75426;SDS011;64007;50.632;13.700;2023-06-01T14:14:37;2.95;;;1.77;;
75426;SDS011;64007;50.632;13.700;2023-06-01T14:17:02;6.10;;;1.88;;
75426;SDS011;64007;50.632;13.700;2023-06-01T14:19:29;6.22;;;1.85;;
75426;SDS011;64007;50.632;13.700;2023-06-01T14:21:55;4.07;;;1.95;;
75426;SDS011;64007;50.632;13.700;2023-06-01T14:24:20;5.35;;;1.98;;
75426;SDS011;64007;50.632;13.700;2023-06-01T14:26:46;10.20;;;1.83;;
75426;SDS011;64007;50.632;13.700;2023-06-01T14:29:12;8.75;;;1.77;;
75426;SDS011;64007;50.632;13.700;2023-06-01T14:31:37;4.57;;;2.13;;
75426;SDS011;64007;50.632;13.700;2023-06-01T14:34:03;6.85;;;1.80;;
75426;SDS011;64007;50.632;13.700;2023-06-01T14:36:29;5.15;;;2.17;;
75426;SDS011;64007;50.632;13.700;2023-06-01T14:38:55;3.78;;;1.80;;
75426;SDS011;64007;50.632;13.700;2023-06-01T14:41:21;6.15;;;2.08;;
75426;SDS011;64007;50.632;13.700;2023-06-01T14:43:47;12.98;;;2.08;;
75426;SDS011;64007;50.632;13.700;2023-06-01T14:46:12;3.40;;;1.80;;
75426;SDS011;64007;50.632;13.700;2023-06-01T14:48:38;5.10;;;1.77;;
75426;SDS011;64007;50.632;13.700;2023-06-01T14:51:04;13.20;;;2.13;;
75426;SDS011;64007;50.632;13.700;2023-06-01T14:53:30;4.00;;;1.95;;
75426;SDS011;64007;50.632;13.700;2023-06-01T14:55:56;3.50;;;2.17;;
75426;SDS011;64007;50.632;13.700;2023-06-01T14:58:21;3.95;;;2.25;;
75426;SDS011;64007;50.632;13.700;2023-06-01T15:00:47;8.00;;;2.28;;
75426;SDS011;64007;50.632;13.700;2023-06-01T15:03:13;3.33;;;1.95;;
75426;SDS011;64007;50.632;13.700;2023-06-01T15:05:39;4.95;;;2.00;;
75426;SDS011;64007;50.632;13.700;2023-06-01T15:08:05;7.65;;;2.22;;
75426;SDS011;64007;50.632;13.700;2023-06-01T15:10:32;5.82;;;2.30;;